Startpagina
METAR-TAF:

METAR-TAF

Vliegvelden :

Rotterdam The Hague Airport

Rotterdam, Nederland

breedte: 51-57N, lengte: 004-27E, hoogte: -5 m

Actueel weer

Dit bericht is 33 minuten geleden gemaakt, om 05:25 UTC
Wind 2 kt uit het noordwesten
Temperatuur 1°C
Vochtigheid 93%
Druk 1028 hPa
Zicht 10 km of meer
Geheel bewolkt op 3600 ft

METAR: EHRD 070525Z AUTO 31002KT 9999 OVC036 01/00 Q1028 NOSIG

Tijdstip: 06:58 (05:58 UTC)

Verwachting

Dit bericht is 52 minuten geleden gemaakt, om 05:06 UTC
Verwachting geldig van 07 om 06 UTC tot 08 om 12 UTC
Wind 3 kt uit variabele richting
Zicht 10 km of meer
Gebroken wolken op 3500 ft
Wijzigt naar
van 07 om 09 UTC tot 07 om 12 UTC
Wind 6 kt uit het noordnoordwesten

TAF: EHRD 070506Z 0706/0812 VRB03KT 9999 BKN035 BECMG 0709/0712 33006KT

Waarnemingen en weersverwachtingen van meer dan 4000 vliegvelden (METAR en TAF).

De beschikbare stations zijn de gele en rode punten op de kaart.

Ga met uw muis naar het station om de naam te zien.

Klik dan om waarnemingen en weersverwachtingen te zien.

kaart wijzigen: klik op de groene knoppen met een zwart kruis om in te zoomen, op de groene knop met een streepje om uit te zoomen of op de groene pijlen voor aangrenzende kaarten.


METAR-TAF: